sensor_id;sensor_type;location;lat;lon;timestamp;P1;durP1;ratioP1;P2;durP2;ratioP2
65096;SDS011;51686;46.758;4.356;2024-02-21T00:00:47;9.07;;;2.72;;
65096;SDS011;51686;46.758;4.356;2024-02-21T00:03:34;6.20;;;2.40;;
65096;SDS011;51686;46.758;4.356;2024-02-21T00:06:21;9.57;;;2.67;;
65096;SDS011;51686;46.758;4.356;2024-02-21T00:09:08;8.15;;;2.40;;
65096;SDS011;51686;46.758;4.356;2024-02-21T00:11:56;9.68;;;3.17;;
65096;SDS011;51686;46.758;4.356;2024-02-21T00:14:43;7.50;;;2.70;;
65096;SDS011;51686;46.758;4.356;2024-02-21T00:17:30;5.65;;;2.30;;
65096;SDS011;51686;46.758;4.356;2024-02-21T00:20:17;10.20;;;2.90;;
65096;SDS011;51686;46.758;4.356;2024-02-21T00:23:04;10.00;;;2.60;;
65096;SDS011;51686;46.758;4.356;2024-02-21T00:25:51;7.75;;;2.80;;
65096;SDS011;51686;46.758;4.356;2024-02-21T00:28:38;9.25;;;2.75;;
65096;SDS011;51686;46.758;4.356;2024-02-21T00:31:25;6.82;;;2.60;;
65096;SDS011;51686;46.758;4.356;2024-02-21T00:34:12;7.20;;;2.42;;
65096;SDS011;51686;46.758;4.356;2024-02-21T00:37:00;6.80;;;2.53;;
65096;SDS011;51686;46.758;4.356;2024-02-21T00:39:47;7.97;;;2.47;;
65096;SDS011;51686;46.758;4.356;2024-02-21T00:42:33;6.65;;;2.35;;
65096;SDS011;51686;46.758;4.356;2024-02-21T00:45:20;6.95;;;2.40;;
65096;SDS011;51686;46.758;4.356;2024-02-21T00:48:07;7.05;;;2.33;;
65096;SDS011;51686;46.758;4.356;2024-02-21T00:50:54;6.75;;;2.70;;
65096;SDS011;51686;46.758;4.356;2024-02-21T00:53:41;7.68;;;2.47;;
65096;SDS011;51686;46.758;4.356;2024-02-21T00:56:29;8.45;;;2.35;;
65096;SDS011;51686;46.758;4.356;2024-02-21T00:59:17;7.65;;;2.50;;
65096;SDS011;51686;46.758;4.356;2024-02-21T01:02:04;8.15;;;2.65;;
65096;SDS011;51686;46.758;4.356;2024-02-21T01:04:52;6.63;;;2.28;;
65096;SDS011;51686;46.758;4.356;2024-02-21T01:07:39;7.05;;;2.60;;
65096;SDS011;51686;46.758;4.356;2024-02-21T01:10:26;9.45;;;2.50;;
65096;SDS011;51686;46.758;4.356;2024-02-21T01:13:12;8.15;;;2.63;;
65096;SDS011;51686;46.758;4.356;2024-02-21T01:15:59;7.88;;;2.50;;
65096;SDS011;51686;46.758;4.356;2024-02-21T01:18:46;8.40;;;2.45;;
65096;SDS011;51686;46.758;4.356;2024-02-21T01:21:33;7.57;;;2.85;;
65096;SDS011;51686;46.758;4.356;2024-02-21T01:24:20;7.80;;;2.53;;
65096;SDS011;51686;46.758;4.356;2024-02-21T01:27:07;6.82;;;2.50;;
65096;SDS011;51686;46.758;4.356;2024-02-21T01:29:54;6.85;;;2.35;;
65096;SDS011;51686;46.758;4.356;2024-02-21T01:32:41;7.75;;;3.15;;
65096;SDS011;51686;46.758;4.356;2024-02-21T01:35:28;7.45;;;2.50;;
65096;SDS011;51686;46.758;4.356;2024-02-21T01:38:15;7.47;;;2.10;;
65096;SDS011;51686;46.758;4.356;2024-02-21T01:41:02;7.72;;;2.58;;
65096;SDS011;51686;46.758;4.356;2024-02-21T01:43:49;7.40;;;2.45;;
65096;SDS011;51686;46.758;4.356;2024-02-21T01:46:36;6.03;;;2.38;;
65096;SDS011;51686;46.758;4.356;2024-02-21T01:49:23;8.52;;;2.65;;
65096;SDS011;51686;46.758;4.356;2024-02-21T01:52:10;6.85;;;2.55;;
65096;SDS011;51686;46.758;4.356;2024-02-21T01:54:59;7.72;;;2.70;;
65096;SDS011;51686;46.758;4.356;2024-02-21T01:57:46;7.68;;;2.50;;
65096;SDS011;51686;46.758;4.356;2024-02-21T02:00:33;7.68;;;2.53;;
65096;SDS011;51686;46.758;4.356;2024-02-21T02:03:20;8.27;;;2.47;;
65096;SDS011;51686;46.758;4.356;2024-02-21T02:06:07;8.57;;;2.50;;
65096;SDS011;51686;46.758;4.356;2024-02-21T02:08:54;6.20;;;2.35;;
65096;SDS011;51686;46.758;4.356;2024-02-21T02:11:42;8.15;;;2.90;;
65096;SDS011;51686;46.758;4.356;2024-02-21T02:14:29;6.78;;;2.20;;
65096;SDS011;51686;46.758;4.356;2024-02-21T02:17:16;8.80;;;2.60;;
65096;SDS011;51686;46.758;4.356;2024-02-21T02:20:03;8.18;;;2.65;;
65096;SDS011;51686;46.758;4.356;2024-02-21T02:22:52;8.68;;;2.47;;
65096;SDS011;51686;46.758;4.356;2024-02-21T02:25:39;8.57;;;2.47;;
65096;SDS011;51686;46.758;4.356;2024-02-21T02:28:26;10.50;;;2.50;;
65096;SDS011;51686;46.758;4.356;2024-02-21T02:31:13;6.53;;;2.30;;
65096;SDS011;51686;46.758;4.356;2024-02-21T02:34:00;7.90;;;2.92;;
65096;SDS011;51686;46.758;4.356;2024-02-21T02:36:47;8.55;;;2.60;;
65096;SDS011;51686;46.758;4.356;2024-02-21T02:39:36;7.97;;;2.47;;
65096;SDS011;51686;46.758;4.356;2024-02-21T02:42:23;7.57;;;2.70;;
65096;SDS011;51686;46.758;4.356;2024-02-21T02:45:09;7.57;;;2.40;;
65096;SDS011;51686;46.758;4.356;2024-02-21T02:47:56;7.93;;;2.60;;
65096;SDS011;51686;46.758;4.356;2024-02-21T02:50:44;7.22;;;2.40;;
65096;SDS011;51686;46.758;4.356;2024-02-21T02:53:32;8.45;;;2.53;;
65096;SDS011;51686;46.758;4.356;2024-02-21T02:56:19;8.68;;;2.50;;
65096;SDS011;51686;46.758;4.356;2024-02-21T02:59:06;6.55;;;2.55;;
65096;SDS011;51686;46.758;4.356;2024-02-21T03:01:53;7.88;;;2.47;;
65096;SDS011;51686;46.758;4.356;2024-02-21T03:04:40;7.00;;;2.50;;
65096;SDS011;51686;46.758;4.356;2024-02-21T03:07:27;7.30;;;2.53;;
65096;SDS011;51686;46.758;4.356;2024-02-21T03:10:14;6.28;;;2.30;;
65096;SDS011;51686;46.758;4.356;2024-02-21T03:13:03;7.35;;;2.50;;
65096;SDS011;51686;46.758;4.356;2024-02-21T03:15:51;7.57;;;2.55;;
65096;SDS011;51686;46.758;4.356;2024-02-21T03:18:38;8.75;;;2.60;;
65096;SDS011;51686;46.758;4.356;2024-02-21T03:21:25;8.98;;;2.72;;
65096;SDS011;51686;46.758;4.356;2024-02-21T03:24:11;8.52;;;2.90;;
65096;SDS011;51686;46.758;4.356;2024-02-21T03:26:58;6.82;;;2.40;;
65096;SDS011;51686;46.758;4.356;2024-02-21T03:29:45;8.15;;;2.60;;
65096;SDS011;51686;46.758;4.356;2024-02-21T03:32:32;7.90;;;2.63;;
65096;SDS011;51686;46.758;4.356;2024-02-21T03:35:19;8.40;;;2.70;;
65096;SDS011;51686;46.758;4.356;2024-02-21T03:38:06;7.07;;;2.53;;
65096;SDS011;51686;46.758;4.356;2024-02-21T03:40:53;7.60;;;2.92;;
65096;SDS011;51686;46.758;4.356;2024-02-21T03:43:40;6.93;;;2.50;;
65096;SDS011;51686;46.758;4.356;2024-02-21T03:46:27;9.73;;;3.00;;
65096;SDS011;51686;46.758;4.356;2024-02-21T03:49:14;6.32;;;2.72;;
65096;SDS011;51686;46.758;4.356;2024-02-21T03:52:01;8.02;;;3.00;;
65096;SDS011;51686;46.758;4.356;2024-02-21T03:54:48;9.02;;;3.10;;
65096;SDS011;51686;46.758;4.356;2024-02-21T03:57:34;6.85;;;2.30;;
65096;SDS011;51686;46.758;4.356;2024-02-21T04:00:21;7.20;;;2.35;;
65096;SDS011;51686;46.758;4.356;2024-02-21T04:03:10;8.43;;;2.95;;
65096;SDS011;51686;46.758;4.356;2024-02-21T04:05:56;8.07;;;3.10;;
65096;SDS011;51686;46.758;4.356;2024-02-21T04:08:44;10.55;;;2.95;;
65096;SDS011;51686;46.758;4.356;2024-02-21T04:11:31;8.43;;;2.90;;
65096;SDS011;51686;46.758;4.356;2024-02-21T04:14:18;8.32;;;2.67;;
65096;SDS011;51686;46.758;4.356;2024-02-21T04:17:05;9.32;;;3.08;;
65096;SDS011;51686;46.758;4.356;2024-02-21T04:19:53;8.20;;;3.10;;
65096;SDS011;51686;46.758;4.356;2024-02-21T04:22:49;6.88;;;2.70;;
65096;SDS011;51686;46.758;4.356;2024-02-21T04:25:36;8.18;;;2.58;;
65096;SDS011;51686;46.758;4.356;2024-02-21T04:28:23;7.75;;;3.08;;
65096;SDS011;51686;46.758;4.356;2024-02-21T04:31:10;7.40;;;2.95;;
65096;SDS011;51686;46.758;4.356;2024-02-21T04:33:57;7.90;;;2.80;;
65096;SDS011;51686;46.758;4.356;2024-02-21T04:36:44;7.65;;;3.17;;
65096;SDS011;51686;46.758;4.356;2024-02-21T04:39:31;8.48;;;2.97;;
65096;SDS011;51686;46.758;4.356;2024-02-21T04:42:18;8.25;;;3.00;;
65096;SDS011;51686;46.758;4.356;2024-02-21T04:45:05;8.50;;;3.42;;
65096;SDS011;51686;46.758;4.356;2024-02-21T04:47:52;9.57;;;2.97;;
65096;SDS011;51686;46.758;4.356;2024-02-21T04:50:39;7.47;;;2.78;;
65096;SDS011;51686;46.758;4.356;2024-02-21T04:53:27;8.23;;;3.08;;
65096;SDS011;51686;46.758;4.356;2024-02-21T04:56:14;7.95;;;3.08;;
65096;SDS011;51686;46.758;4.356;2024-02-21T04:59:01;9.30;;;3.33;;
65096;SDS011;51686;46.758;4.356;2024-02-21T05:01:48;8.48;;;3.03;;
65096;SDS011;51686;46.758;4.356;2024-02-21T05:04:35;9.13;;;3.20;;
65096;SDS011;51686;46.758;4.356;2024-02-21T05:07:23;7.90;;;3.00;;
65096;SDS011;51686;46.758;4.356;2024-02-21T05:10:10;9.45;;;3.35;;
65096;SDS011;51686;46.758;4.356;2024-02-21T05:12:57;9.93;;;3.13;;
65096;SDS011;51686;46.758;4.356;2024-02-21T05:15:45;9.25;;;3.30;;
65096;SDS011;51686;46.758;4.356;2024-02-21T05:18:32;7.65;;;3.20;;
65096;SDS011;51686;46.758;4.356;2024-02-21T05:21:19;9.63;;;3.33;;
65096;SDS011;51686;46.758;4.356;2024-02-21T05:24:06;8.52;;;3.00;;
65096;SDS011;51686;46.758;4.356;2024-02-21T05:26:54;9.27;;;3.30;;
65096;SDS011;51686;46.758;4.356;2024-02-21T05:29:40;8.35;;;3.15;;
65096;SDS011;51686;46.758;4.356;2024-02-21T05:32:27;9.75;;;3.33;;
65096;SDS011;51686;46.758;4.356;2024-02-21T05:35:15;9.23;;;3.70;;
65096;SDS011;51686;46.758;4.356;2024-02-21T05:38:02;8.23;;;3.20;;
65096;SDS011;51686;46.758;4.356;2024-02-21T05:40:53;8.88;;;3.20;;
65096;SDS011;51686;46.758;4.356;2024-02-21T05:43:40;7.63;;;2.88;;
65096;SDS011;51686;46.758;4.356;2024-02-21T05:46:27;10.77;;;3.22;;
65096;SDS011;51686;46.758;4.356;2024-02-21T05:49:14;8.15;;;3.13;;
65096;SDS011;51686;46.758;4.356;2024-02-21T05:52:01;7.65;;;3.03;;
65096;SDS011;51686;46.758;4.356;2024-02-21T05:54:48;11.27;;;3.03;;
65096;SDS011;51686;46.758;4.356;2024-02-21T05:57:36;9.13;;;3.30;;
65096;SDS011;51686;46.758;4.356;2024-02-21T06:00:23;9.10;;;3.42;;
65096;SDS011;51686;46.758;4.356;2024-02-21T06:03:10;8.77;;;3.17;;
65096;SDS011;51686;46.758;4.356;2024-02-21T06:05:57;8.73;;;3.45;;
65096;SDS011;51686;46.758;4.356;2024-02-21T06:08:44;7.88;;;2.92;;
65096;SDS011;51686;46.758;4.356;2024-02-21T06:11:31;10.05;;;3.67;;
65096;SDS011;51686;46.758;4.356;2024-02-21T06:14:19;8.00;;;3.08;;
65096;SDS011;51686;46.758;4.356;2024-02-21T06:17:06;7.47;;;2.88;;
65096;SDS011;51686;46.758;4.356;2024-02-21T06:19:53;8.18;;;3.17;;
65096;SDS011;51686;46.758;4.356;2024-02-21T06:22:40;9.02;;;3.45;;
65096;SDS011;51686;46.758;4.356;2024-02-21T06:25:27;8.00;;;3.30;;
65096;SDS011;51686;46.758;4.356;2024-02-21T06:28:14;7.65;;;2.80;;
65096;SDS011;51686;46.758;4.356;2024-02-21T06:31:04;9.05;;;3.38;;
65096;SDS011;51686;46.758;4.356;2024-02-21T06:33:51;9.60;;;3.55;;
65096;SDS011;51686;46.758;4.356;2024-02-21T06:36:38;9.55;;;3.47;;
65096;SDS011;51686;46.758;4.356;2024-02-21T06:39:24;9.50;;;3.35;;
65096;SDS011;51686;46.758;4.356;2024-02-21T06:42:12;8.32;;;3.45;;
65096;SDS011;51686;46.758;4.356;2024-02-21T06:44:59;7.93;;;3.03;;
65096;SDS011;51686;46.758;4.356;2024-02-21T06:47:46;9.45;;;3.38;;
65096;SDS011;51686;46.758;4.356;2024-02-21T06:50:33;10.23;;;3.45;;
65096;SDS011;51686;46.758;4.356;2024-02-21T06:53:20;9.18;;;3.10;;
65096;SDS011;51686;46.758;4.356;2024-02-21T06:56:07;9.95;;;3.30;;
65096;SDS011;51686;46.758;4.356;2024-02-21T06:58:54;10.82;;;3.47;;
65096;SDS011;51686;46.758;4.356;2024-02-21T07:01:48;8.93;;;3.08;;
65096;SDS011;51686;46.758;4.356;2024-02-21T07:04:36;9.57;;;3.25;;
65096;SDS011;51686;46.758;4.356;2024-02-21T07:07:23;8.10;;;3.30;;
65096;SDS011;51686;46.758;4.356;2024-02-21T07:10:10;9.27;;;3.30;;
65096;SDS011;51686;46.758;4.356;2024-02-21T07:12:58;9.90;;;3.15;;
65096;SDS011;51686;46.758;4.356;2024-02-21T07:15:45;7.97;;;2.78;;
65096;SDS011;51686;46.758;4.356;2024-02-21T07:18:32;11.20;;;3.10;;
65096;SDS011;51686;46.758;4.356;2024-02-21T07:21:18;7.55;;;3.13;;
65096;SDS011;51686;46.758;4.356;2024-02-21T07:24:05;8.43;;;3.13;;
65096;SDS011;51686;46.758;4.356;2024-02-21T07:26:52;8.32;;;2.75;;
65096;SDS011;51686;46.758;4.356;2024-02-21T07:29:40;8.50;;;3.30;;
65096;SDS011;51686;46.758;4.356;2024-02-21T07:32:27;8.90;;;3.08;;
65096;SDS011;51686;46.758;4.356;2024-02-21T07:35:14;8.27;;;3.10;;
65096;SDS011;51686;46.758;4.356;2024-02-21T07:38:00;8.10;;;2.63;;
65096;SDS011;51686;46.758;4.356;2024-02-21T07:40:47;11.18;;;3.50;;
65096;SDS011;51686;46.758;4.356;2024-02-21T07:43:34;6.88;;;2.92;;
65096;SDS011;51686;46.758;4.356;2024-02-21T07:46:21;9.98;;;2.92;;
65096;SDS011;51686;46.758;4.356;2024-02-21T07:49:08;7.97;;;3.00;;
65096;SDS011;51686;46.758;4.356;2024-02-21T07:51:55;7.82;;;3.08;;
65096;SDS011;51686;46.758;4.356;2024-02-21T07:54:42;7.80;;;2.90;;
65096;SDS011;51686;46.758;4.356;2024-02-21T07:57:30;8.38;;;3.15;;
65096;SDS011;51686;46.758;4.356;2024-02-21T08:00:19;8.02;;;2.92;;
65096;SDS011;51686;46.758;4.356;2024-02-21T08:03:08;7.72;;;3.10;;
65096;SDS011;51686;46.758;4.356;2024-02-21T08:05:54;9.15;;;2.83;;
65096;SDS011;51686;46.758;4.356;2024-02-21T08:08:41;8.77;;;3.08;;
65096;SDS011;51686;46.758;4.356;2024-02-21T08:11:28;8.77;;;2.85;;
65096;SDS011;51686;46.758;4.356;2024-02-21T08:14:15;6.78;;;2.78;;
65096;SDS011;51686;46.758;4.356;2024-02-21T08:17:06;9.23;;;2.80;;
65096;SDS011;51686;46.758;4.356;2024-02-21T08:19:53;8.07;;;2.75;;
65096;SDS011;51686;46.758;4.356;2024-02-21T08:22:40;9.75;;;3.17;;
65096;SDS011;51686;46.758;4.356;2024-02-21T08:25:27;7.00;;;2.72;;
65096;SDS011;51686;46.758;4.356;2024-02-21T08:28:14;7.45;;;2.92;;
65096;SDS011;51686;46.758;4.356;2024-02-21T08:31:01;9.57;;;2.83;;
65096;SDS011;51686;46.758;4.356;2024-02-21T08:33:48;8.05;;;3.03;;
65096;SDS011;51686;46.758;4.356;2024-02-21T08:36:35;9.38;;;3.00;;
65096;SDS011;51686;46.758;4.356;2024-02-21T08:39:23;7.82;;;2.67;;
65096;SDS011;51686;46.758;4.356;2024-02-21T08:42:11;7.20;;;2.80;;
65096;SDS011;51686;46.758;4.356;2024-02-21T08:44:57;7.45;;;3.03;;
65096;SDS011;51686;46.758;4.356;2024-02-21T08:47:44;8.02;;;2.90;;
65096;SDS011;51686;46.758;4.356;2024-02-21T08:50:31;8.52;;;2.88;;
65096;SDS011;51686;46.758;4.356;2024-02-21T08:53:18;8.20;;;2.92;;
65096;SDS011;51686;46.758;4.356;2024-02-21T08:56:05;8.82;;;3.00;;
65096;SDS011;51686;46.758;4.356;2024-02-21T08:58:54;6.28;;;2.50;;
65096;SDS011;51686;46.758;4.356;2024-02-21T09:01:41;9.52;;;2.80;;
65096;SDS011;51686;46.758;4.356;2024-02-21T09:04:28;7.53;;;2.70;;
65096;SDS011;51686;46.758;4.356;2024-02-21T09:07:15;6.63;;;2.45;;
65096;SDS011;51686;46.758;4.356;2024-02-21T09:10:02;8.35;;;2.70;;
65096;SDS011;51686;46.758;4.356;2024-02-21T09:12:49;7.55;;;2.90;;
65096;SDS011;51686;46.758;4.356;2024-02-21T09:15:37;7.75;;;2.78;;
65096;SDS011;51686;46.758;4.356;2024-02-21T09:18:23;7.78;;;2.95;;
65096;SDS011;51686;46.758;4.356;2024-02-21T09:21:11;8.52;;;2.63;;
65096;SDS011;51686;46.758;4.356;2024-02-21T09:23:57;9.73;;;3.00;;
65096;SDS011;51686;46.758;4.356;2024-02-21T09:26:46;8.05;;;2.60;;
65096;SDS011;51686;46.758;4.356;2024-02-21T09:29:33;7.85;;;2.95;;
65096;SDS011;51686;46.758;4.356;2024-02-21T09:32:20;7.30;;;2.53;;
65096;SDS011;51686;46.758;4.356;2024-02-21T09:35:07;6.65;;;2.72;;
65096;SDS011;51686;46.758;4.356;2024-02-21T09:37:54;8.15;;;2.53;;
65096;SDS011;51686;46.758;4.356;2024-02-21T09:40:41;7.43;;;2.50;;
65096;SDS011;51686;46.758;4.356;2024-02-21T09:43:29;6.10;;;2.40;;
65096;SDS011;51686;46.758;4.356;2024-02-21T09:46:16;6.15;;;2.38;;
65096;SDS011;51686;46.758;4.356;2024-02-21T09:49:11;7.35;;;2.47;;
65096;SDS011;51686;46.758;4.356;2024-02-21T09:52:06;7.55;;;2.85;;
65096;SDS011;51686;46.758;4.356;2024-02-21T09:54:53;5.18;;;2.10;;
65096;SDS011;51686;46.758;4.356;2024-02-21T09:57:40;5.82;;;2.28;;
65096;SDS011;51686;46.758;4.356;2024-02-21T10:00:27;7.28;;;2.40;;
65096;SDS011;51686;46.758;4.356;2024-02-21T10:03:14;6.70;;;2.20;;
65096;SDS011;51686;46.758;4.356;2024-02-21T10:06:01;6.82;;;2.63;;
65096;SDS011;51686;46.758;4.356;2024-02-21T10:08:55;8.32;;;2.45;;
65096;SDS011;51686;46.758;4.356;2024-02-21T10:11:42;8.02;;;2.33;;
65096;SDS011;51686;46.758;4.356;2024-02-21T10:14:29;6.80;;;2.30;;
65096;SDS011;51686;46.758;4.356;2024-02-21T10:17:16;5.45;;;2.20;;
65096;SDS011;51686;46.758;4.356;2024-02-21T10:20:08;7.15;;;2.10;;
65096;SDS011;51686;46.758;4.356;2024-02-21T10:23:03;5.28;;;2.00;;
65096;SDS011;51686;46.758;4.356;2024-02-21T10:26:04;5.78;;;1.73;;
65096;SDS011;51686;46.758;4.356;2024-02-21T10:28:52;5.60;;;2.10;;
65096;SDS011;51686;46.758;4.356;2024-02-21T10:31:41;6.15;;;1.85;;
65096;SDS011;51686;46.758;4.356;2024-02-21T10:34:28;7.13;;;2.00;;
65096;SDS011;51686;46.758;4.356;2024-02-21T10:37:15;5.88;;;2.00;;
65096;SDS011;51686;46.758;4.356;2024-02-21T10:40:02;7.22;;;2.50;;
65096;SDS011;51686;46.758;4.356;2024-02-21T10:42:58;6.30;;;1.80;;
65096;SDS011;51686;46.758;4.356;2024-02-21T10:45:47;5.57;;;2.08;;
65096;SDS011;51686;46.758;4.356;2024-02-21T10:48:44;6.13;;;2.00;;
65096;SDS011;51686;46.758;4.356;2024-02-21T10:51:33;6.72;;;1.90;;
65096;SDS011;51686;46.758;4.356;2024-02-21T10:57:34;5.55;;;2.00;;
65096;SDS011;51686;46.758;4.356;2024-02-21T11:00:21;4.65;;;1.80;;
65096;SDS011;51686;46.758;4.356;2024-02-21T11:03:11;4.90;;;1.77;;
65096;SDS011;51686;46.758;4.356;2024-02-21T11:05:59;4.35;;;1.77;;
65096;SDS011;51686;46.758;4.356;2024-02-21T11:08:47;4.80;;;1.95;;
65096;SDS011;51686;46.758;4.356;2024-02-21T11:11:38;5.43;;;1.77;;
65096;SDS011;51686;46.758;4.356;2024-02-21T11:14:29;5.40;;;2.22;;
65096;SDS011;51686;46.758;4.356;2024-02-21T11:17:20;6.13;;;1.85;;
65096;SDS011;51686;46.758;4.356;2024-02-21T11:20:13;4.85;;;1.80;;
65096;SDS011;51686;46.758;4.356;2024-02-21T11:23:01;7.00;;;2.10;;
65096;SDS011;51686;46.758;4.356;2024-02-21T11:25:48;8.38;;;2.08;;
65096;SDS011;51686;46.758;4.356;2024-02-21T11:28:35;5.95;;;1.73;;
65096;SDS011;51686;46.758;4.356;2024-02-21T11:31:25;4.25;;;1.77;;
65096;SDS011;51686;46.758;4.356;2024-02-21T11:34:17;5.63;;;1.80;;
65096;SDS011;51686;46.758;4.356;2024-02-21T11:37:14;4.97;;;1.77;;
65096;SDS011;51686;46.758;4.356;2024-02-21T11:40:04;5.07;;;1.80;;
65096;SDS011;51686;46.758;4.356;2024-02-21T11:42:58;5.18;;;2.05;;
65096;SDS011;51686;46.758;4.356;2024-02-21T11:45:46;4.53;;;1.80;;
65096;SDS011;51686;46.758;4.356;2024-02-21T11:48:32;4.75;;;1.80;;
65096;SDS011;51686;46.758;4.356;2024-02-21T11:51:26;4.50;;;1.60;;
65096;SDS011;51686;46.758;4.356;2024-02-21T11:54:13;5.45;;;1.75;;
65096;SDS011;51686;46.758;4.356;2024-02-21T11:57:02;4.00;;;1.58;;
65096;SDS011;51686;46.758;4.356;2024-02-21T11:59:53;6.85;;;1.70;;
65096;SDS011;51686;46.758;4.356;2024-02-21T12:02:45;5.00;;;1.50;;
65096;SDS011;51686;46.758;4.356;2024-02-21T12:05:33;4.68;;;1.73;;
65096;SDS011;51686;46.758;4.356;2024-02-21T12:08:20;6.63;;;1.83;;
65096;SDS011;51686;46.758;4.356;2024-02-21T12:11:17;5.40;;;1.70;;
65096;SDS011;51686;46.758;4.356;2024-02-21T12:14:05;4.88;;;1.55;;
65096;SDS011;51686;46.758;4.356;2024-02-21T12:16:52;3.08;;;1.20;;
65096;SDS011;51686;46.758;4.356;2024-02-21T12:19:39;4.60;;;1.60;;
65096;SDS011;51686;46.758;4.356;2024-02-21T12:22:26;5.63;;;1.95;;
65096;SDS011;51686;46.758;4.356;2024-02-21T12:25:17;3.75;;;1.50;;
65096;SDS011;51686;46.758;4.356;2024-02-21T12:28:13;5.15;;;1.40;;
65096;SDS011;51686;46.758;4.356;2024-02-21T12:31:00;3.70;;;1.50;;
65096;SDS011;51686;46.758;4.356;2024-02-21T12:33:46;5.40;;;1.58;;
65096;SDS011;51686;46.758;4.356;2024-02-21T12:36:36;4.75;;;1.60;;
65096;SDS011;51686;46.758;4.356;2024-02-21T12:39:27;4.15;;;1.40;;
65096;SDS011;51686;46.758;4.356;2024-02-21T12:42:15;5.47;;;1.60;;
65096;SDS011;51686;46.758;4.356;2024-02-21T12:45:02;4.50;;;1.30;;
65096;SDS011;51686;46.758;4.356;2024-02-21T12:47:50;4.68;;;1.30;;
65096;SDS011;51686;46.758;4.356;2024-02-21T12:50:37;5.10;;;1.38;;
65096;SDS011;51686;46.758;4.356;2024-02-21T12:53:24;4.35;;;1.50;;
65096;SDS011;51686;46.758;4.356;2024-02-21T12:56:18;2.50;;;1.40;;
65096;SDS011;51686;46.758;4.356;2024-02-21T12:59:06;3.85;;;1.23;;
65096;SDS011;51686;46.758;4.356;2024-02-21T13:01:55;4.60;;;1.50;;
65096;SDS011;51686;46.758;4.356;2024-02-21T13:04:42;5.78;;;1.50;;
65096;SDS011;51686;46.758;4.356;2024-02-21T13:07:29;2.55;;;1.27;;
65096;SDS011;51686;46.758;4.356;2024-02-21T13:10:19;2.25;;;1.13;;
65096;SDS011;51686;46.758;4.356;2024-02-21T13:13:06;3.20;;;1.27;;
65096;SDS011;51686;46.758;4.356;2024-02-21T13:15:53;3.63;;;1.40;;
65096;SDS011;51686;46.758;4.356;2024-02-21T13:18:39;2.50;;;1.05;;
65096;SDS011;51686;46.758;4.356;2024-02-21T13:21:29;2.70;;;1.33;;
65096;SDS011;51686;46.758;4.356;2024-02-21T13:24:16;2.20;;;1.10;;
65096;SDS011;51686;46.758;4.356;2024-02-21T13:27:03;2.38;;;1.20;;
65096;SDS011;51686;46.758;4.356;2024-02-21T13:29:50;2.45;;;1.13;;
65096;SDS011;51686;46.758;4.356;2024-02-21T13:32:37;2.65;;;1.02;;
65096;SDS011;51686;46.758;4.356;2024-02-21T13:35:24;1.80;;;1.15;;
65096;SDS011;51686;46.758;4.356;2024-02-21T13:38:12;2.88;;;1.13;;
65096;SDS011;51686;46.758;4.356;2024-02-21T13:40:59;4.30;;;1.40;;
65096;SDS011;51686;46.758;4.356;2024-02-21T13:43:47;3.72;;;1.38;;
65096;SDS011;51686;46.758;4.356;2024-02-21T13:46:34;4.47;;;1.40;;
65096;SDS011;51686;46.758;4.356;2024-02-21T13:49:21;3.40;;;1.20;;
65096;SDS011;51686;46.758;4.356;2024-02-21T13:52:08;4.38;;;1.33;;
65096;SDS011;51686;46.758;4.356;2024-02-21T13:54:56;4.13;;;1.30;;
65096;SDS011;51686;46.758;4.356;2024-02-21T13:57:43;3.50;;;1.30;;
65096;SDS011;51686;46.758;4.356;2024-02-21T14:00:30;3.80;;;1.40;;
65096;SDS011;51686;46.758;4.356;2024-02-21T14:03:17;3.25;;;1.50;;
65096;SDS011;51686;46.758;4.356;2024-02-21T14:06:05;5.30;;;1.50;;
65096;SDS011;51686;46.758;4.356;2024-02-21T14:08:52;2.20;;;1.08;;
65096;SDS011;51686;46.758;4.356;2024-02-21T14:11:39;5.30;;;1.55;;
65096;SDS011;51686;46.758;4.356;2024-02-21T14:14:28;5.00;;;1.48;;
65096;SDS011;51686;46.758;4.356;2024-02-21T14:17:15;3.78;;;1.40;;
65096;SDS011;51686;46.758;4.356;2024-02-21T14:20:02;4.10;;;1.50;;
65096;SDS011;51686;46.758;4.356;2024-02-21T14:22:51;2.58;;;1.30;;
65096;SDS011;51686;46.758;4.356;2024-02-21T14:25:38;4.10;;;1.40;;
65096;SDS011;51686;46.758;4.356;2024-02-21T14:28:26;4.15;;;1.50;;
65096;SDS011;51686;46.758;4.356;2024-02-21T14:31:13;3.22;;;1.35;;
65096;SDS011;51686;46.758;4.356;2024-02-21T14:34:00;2.65;;;1.38;;
65096;SDS011;51686;46.758;4.356;2024-02-21T14:36:47;5.68;;;1.60;;
65096;SDS011;51686;46.758;4.356;2024-02-21T14:39:34;6.72;;;1.50;;
65096;SDS011;51686;46.758;4.356;2024-02-21T14:42:22;5.22;;;1.40;;
65096;SDS011;51686;46.758;4.356;2024-02-21T14:45:08;4.30;;;1.50;;
65096;SDS011;51686;46.758;4.356;2024-02-21T14:47:55;5.18;;;1.30;;
65096;SDS011;51686;46.758;4.356;2024-02-21T14:50:42;1.90;;;1.33;;
65096;SDS011;51686;46.758;4.356;2024-02-21T14:53:29;5.30;;;1.60;;
65096;SDS011;51686;46.758;4.356;2024-02-21T14:56:19;2.70;;;1.30;;
65096;SDS011;51686;46.758;4.356;2024-02-21T14:59:06;3.15;;;1.30;;
65096;SDS011;51686;46.758;4.356;2024-02-21T15:02:03;4.90;;;1.40;;
65096;SDS011;51686;46.758;4.356;2024-02-21T15:04:50;4.55;;;1.45;;
65096;SDS011;51686;46.758;4.356;2024-02-21T15:07:38;4.32;;;1.55;;
65096;SDS011;51686;46.758;4.356;2024-02-21T15:10:25;3.88;;;1.33;;
65096;SDS011;51686;46.758;4.356;2024-02-21T15:13:13;3.13;;;1.37;;
65096;SDS011;51686;46.758;4.356;2024-02-21T15:16:01;3.20;;;1.35;;
65096;SDS011;51686;46.758;4.356;2024-02-21T15:18:48;5.32;;;1.50;;
65096;SDS011;51686;46.758;4.356;2024-02-21T15:21:35;5.38;;;1.70;;
65096;SDS011;51686;46.758;4.356;2024-02-21T15:24:22;4.03;;;1.30;;
65096;SDS011;51686;46.758;4.356;2024-02-21T15:27:08;3.58;;;1.30;;
65096;SDS011;51686;46.758;4.356;2024-02-21T15:29:56;3.45;;;1.50;;
65096;SDS011;51686;46.758;4.356;2024-02-21T15:32:43;3.10;;;1.45;;
65096;SDS011;51686;46.758;4.356;2024-02-21T15:35:31;4.03;;;1.48;;
65096;SDS011;51686;46.758;4.356;2024-02-21T15:38:18;3.33;;;1.42;;
65096;SDS011;51686;46.758;4.356;2024-02-21T15:41:05;3.25;;;1.40;;
65096;SDS011;51686;46.758;4.356;2024-02-21T15:43:52;4.45;;;1.38;;
65096;SDS011;51686;46.758;4.356;2024-02-21T15:46:40;3.85;;;1.20;;
65096;SDS011;51686;46.758;4.356;2024-02-21T15:49:27;2.42;;;1.20;;
65096;SDS011;51686;46.758;4.356;2024-02-21T15:52:15;2.22;;;1.20;;
65096;SDS011;51686;46.758;4.356;2024-02-21T15:55:02;3.00;;;1.40;;
65096;SDS011;51686;46.758;4.356;2024-02-21T15:57:49;2.25;;;1.20;;
65096;SDS011;51686;46.758;4.356;2024-02-21T16:00:35;3.65;;;1.30;;
65096;SDS011;51686;46.758;4.356;2024-02-21T16:03:23;4.72;;;1.70;;
65096;SDS011;51686;46.758;4.356;2024-02-21T16:06:10;3.80;;;1.38;;
65096;SDS011;51686;46.758;4.356;2024-02-21T16:08:57;2.70;;;1.40;;
65096;SDS011;51686;46.758;4.356;2024-02-21T16:11:44;4.20;;;1.40;;
65096;SDS011;51686;46.758;4.356;2024-02-21T16:14:31;3.20;;;1.38;;
65096;SDS011;51686;46.758;4.356;2024-02-21T16:17:18;3.50;;;1.38;;
65096;SDS011;51686;46.758;4.356;2024-02-21T16:20:05;3.42;;;1.27;;
65096;SDS011;51686;46.758;4.356;2024-02-21T16:22:56;4.25;;;1.50;;
65096;SDS011;51686;46.758;4.356;2024-02-21T16:25:49;5.07;;;1.55;;
65096;SDS011;51686;46.758;4.356;2024-02-21T16:28:36;5.53;;;1.50;;
65096;SDS011;51686;46.758;4.356;2024-02-21T16:31:23;4.68;;;1.77;;
65096;SDS011;51686;46.758;4.356;2024-02-21T16:34:10;4.68;;;1.38;;
65096;SDS011;51686;46.758;4.356;2024-02-21T16:36:57;3.90;;;1.30;;
65096;SDS011;51686;46.758;4.356;2024-02-21T16:39:44;3.00;;;1.35;;
65096;SDS011;51686;46.758;4.356;2024-02-21T16:42:31;3.53;;;1.40;;
65096;SDS011;51686;46.758;4.356;2024-02-21T16:45:18;4.30;;;1.45;;
65096;SDS011;51686;46.758;4.356;2024-02-21T16:48:07;5.45;;;1.63;;
65096;SDS011;51686;46.758;4.356;2024-02-21T16:50:54;3.60;;;1.45;;
65096;SDS011;51686;46.758;4.356;2024-02-21T16:53:47;4.43;;;1.42;;